createdAt,value
2016-11-16T00:00:52.655Z,1018.78
2016-11-16T00:01:53.263Z,1018.74
2016-11-16T00:02:53.882Z,1018.69
2016-11-16T00:03:54.509Z,1018.66
2016-11-16T00:04:55.380Z,1018.67
2016-11-16T00:05:56.011Z,1018.7
2016-11-16T00:06:56.625Z,1018.72
2016-11-16T00:07:57.275Z,1018.71
2016-11-16T00:08:57.895Z,1018.68
2016-11-16T00:09:58.542Z,1018.72
2016-11-16T00:10:59.170Z,1018.72
2016-11-16T00:11:59.786Z,1018.79
2016-11-16T00:13:00.418Z,1018.76
2016-11-16T00:14:01.112Z,1018.73
2016-11-16T00:15:01.724Z,1018.73
2016-11-16T00:16:02.327Z,1018.74
2016-11-16T00:17:02.950Z,1018.68
2016-11-16T00:18:03.605Z,1018.65
2016-11-16T00:19:04.204Z,1018.66
2016-11-16T00:20:04.822Z,1018.68
2016-11-16T00:21:05.449Z,1018.68
2016-11-16T00:22:06.071Z,1018.62
2016-11-16T00:23:06.694Z,1018.63
2016-11-16T00:24:07.313Z,1018.59
2016-11-16T00:25:07.930Z,1018.61
2016-11-16T00:26:08.541Z,1018.65
2016-11-16T00:27:09.207Z,1018.6
2016-11-16T00:28:09.829Z,1018.65
2016-11-16T00:29:10.435Z,1018.64
2016-11-16T00:30:11.050Z,1018.65
2016-11-16T00:31:11.672Z,1018.62
2016-11-16T00:32:12.284Z,1018.65
2016-11-16T00:33:12.905Z,1018.62
2016-11-16T00:34:13.531Z,1018.6
2016-11-16T00:35:14.144Z,1018.64
2016-11-16T00:36:14.776Z,1018.6
2016-11-16T00:37:15.391Z,1018.59
2016-11-16T00:38:16.013Z,1018.58
2016-11-16T00:39:16.626Z,1018.6
2016-11-16T00:40:17.239Z,1018.58
2016-11-16T00:41:17.867Z,1018.55
2016-11-16T00:42:18.486Z,1018.55
2016-11-16T00:43:19.122Z,1018.57
2016-11-16T00:44:19.740Z,1018.61
2016-11-16T00:45:20.359Z,1018.57
2016-11-16T00:46:21.017Z,1018.6
2016-11-16T00:47:21.620Z,1018.57
2016-11-16T00:48:22.236Z,1018.54
2016-11-16T00:49:22.879Z,1018.53
2016-11-16T00:50:23.499Z,1018.55
2016-11-16T00:51:24.112Z,1018.57
2016-11-16T00:52:24.754Z,1018.6
2016-11-16T00:53:25.375Z,1018.59
2016-11-16T00:54:25.985Z,1018.6
2016-11-16T00:55:26.597Z,1018.59
2016-11-16T00:56:27.228Z,1018.54
2016-11-16T00:57:27.880Z,1018.54
2016-11-16T00:58:28.525Z,1018.55
2016-11-16T00:59:29.144Z,1018.54
2016-11-16T01:00:29.765Z,1018.58
2016-11-16T01:01:30.382Z,1018.51
2016-11-16T01:02:31.015Z,1018.53
2016-11-16T01:03:31.631Z,1018.51
2016-11-16T01:04:32.242Z,1018.47
2016-11-16T01:05:32.872Z,1018.47
2016-11-16T01:06:33.493Z,1018.39
2016-11-16T01:07:34.112Z,1018.37
2016-11-16T01:08:34.749Z,1018.42
2016-11-16T01:09:35.418Z,1018.43
2016-11-16T01:10:36.054Z,1018.38
2016-11-16T01:11:36.690Z,1018.35
2016-11-16T01:12:37.369Z,1018.31
2016-11-16T01:13:37.991Z,1018.35
2016-11-16T01:14:38.603Z,1018.38
2016-11-16T01:15:39.230Z,1018.4
2016-11-16T01:16:39.853Z,1018.41
2016-11-16T01:17:40.486Z,1018.41
2016-11-16T01:18:41.117Z,1018.44
2016-11-16T01:19:41.770Z,1018.39
2016-11-16T01:20:42.385Z,1018.4
2016-11-16T01:21:43.003Z,1018.37
2016-11-16T01:22:43.661Z,1018.38
2016-11-16T01:23:44.288Z,1018.37
2016-11-16T01:24:44.957Z,1018.4
2016-11-16T01:25:45.613Z,1018.38
2016-11-16T01:26:46.218Z,1018.36
2016-11-16T01:27:46.856Z,1018.37
2016-11-16T01:28:47.463Z,1018.42
2016-11-16T01:29:48.113Z,1018.36
2016-11-16T01:30:48.726Z,1018.4
2016-11-16T01:31:49.339Z,1018.34
2016-11-16T01:32:49.952Z,1018.35
2016-11-16T01:33:50.569Z,1018.32
2016-11-16T01:34:51.177Z,1018.3
2016-11-16T01:35:51.789Z,1018.28
2016-11-16T01:36:52.392Z,1018.27
2016-11-16T01:37:53.006Z,1018.25
2016-11-16T01:38:53.629Z,1018.25
2016-11-16T01:39:54.233Z,1018.26
2016-11-16T01:40:54.853Z,1018.22
2016-11-16T01:41:55.457Z,1018.22
2016-11-16T01:42:56.071Z,1018.18
2016-11-16T01:43:56.685Z,1018.23
2016-11-16T01:44:57.298Z,1018.23
2016-11-16T01:45:57.913Z,1018.18
2016-11-16T01:46:58.534Z,1018.21
2016-11-16T01:47:59.162Z,1018.23
2016-11-16T01:48:59.800Z,1018.19
2016-11-16T01:50:00.406Z,1018.24
2016-11-16T01:51:01.021Z,1018.28
2016-11-16T01:52:01.642Z,1018.38
2016-11-16T01:53:02.250Z,1018.32
2016-11-16T01:54:02.880Z,1018.31
2016-11-16T01:55:03.501Z,1018.3
2016-11-16T01:56:04.111Z,1018.3
2016-11-16T01:57:04.751Z,1018.29
2016-11-16T01:58:05.368Z,1018.29
2016-11-16T01:59:05.994Z,1018.31
2016-11-16T02:00:06.609Z,1018.28
2016-11-16T02:01:07.252Z,1018.27
2016-11-16T02:02:07.854Z,1018.24
2016-11-16T02:03:08.475Z,1018.24
2016-11-16T02:04:09.093Z,1018.25
2016-11-16T02:05:09.728Z,1018.24
2016-11-16T02:06:10.337Z,1018.29
2016-11-16T02:07:10.957Z,1018.26
2016-11-16T02:08:11.586Z,1018.25
2016-11-16T02:09:12.218Z,1018.21
2016-11-16T02:10:12.851Z,1018.24
2016-11-16T02:11:13.457Z,1018.2
2016-11-16T02:12:14.080Z,1018.17
2016-11-16T02:13:14.684Z,1018.17
2016-11-16T02:14:15.332Z,1018.21
2016-11-16T02:15:15.926Z,1018.19
2016-11-16T02:16:16.553Z,1018.18
2016-11-16T02:17:17.183Z,1018.21
2016-11-16T02:18:17.787Z,1018.12
2016-11-16T02:19:18.421Z,1018.18
2016-11-16T02:20:19.042Z,1018.16
2016-11-16T02:21:19.656Z,1018.16
2016-11-16T02:22:20.291Z,1018.16
2016-11-16T02:23:20.900Z,1018.17
2016-11-16T02:24:21.515Z,1018.16
2016-11-16T02:25:22.160Z,1018.13
2016-11-16T02:26:22.769Z,1018.13
2016-11-16T02:27:23.383Z,1018.13
2016-11-16T02:28:24.001Z,1018.14
2016-11-16T02:29:24.618Z,1018.08
2016-11-16T02:30:25.238Z,1018.14
2016-11-16T02:31:25.870Z,1018.08
2016-11-16T02:32:26.478Z,1018.1
2016-11-16T02:33:27.112Z,1018.13
2016-11-16T02:34:27.735Z,1018.12
2016-11-16T02:35:28.364Z,1018.16
2016-11-16T02:36:28.993Z,1018.14
2016-11-16T02:37:29.608Z,1018.11
2016-11-16T02:38:30.219Z,1018.07
2016-11-16T02:39:30.837Z,1018.03
2016-11-16T02:40:31.490Z,1018.01
2016-11-16T02:41:32.095Z,1018.02
2016-11-16T02:42:32.696Z,1017.99
2016-11-16T02:43:33.323Z,1017.99
2016-11-16T02:44:33.985Z,1017.96
2016-11-16T02:45:34.627Z,1017.96
2016-11-16T02:46:35.241Z,1017.95
2016-11-16T02:47:42.702Z,1017.87
2016-11-16T02:48:43.327Z,1017.88
2016-11-16T02:49:43.946Z,1017.83
2016-11-16T02:50:44.585Z,1017.87
2016-11-16T02:51:45.206Z,1017.88
2016-11-16T02:52:45.841Z,1017.89
2016-11-16T02:53:46.455Z,1017.88
2016-11-16T02:54:47.063Z,1017.82
2016-11-16T02:55:47.695Z,1017.83
2016-11-16T02:56:48.313Z,1017.83
2016-11-16T02:57:48.923Z,1017.71
2016-11-16T02:58:49.545Z,1017.74
2016-11-16T02:59:50.170Z,1017.68
2016-11-16T03:00:50.780Z,1017.69
2016-11-16T03:01:51.406Z,1017.69
2016-11-16T03:02:52.019Z,1017.65
2016-11-16T03:03:52.634Z,1017.63
2016-11-16T03:04:53.255Z,1017.62
2016-11-16T03:05:53.891Z,1017.62
2016-11-16T03:06:54.477Z,1017.59
2016-11-16T03:07:55.100Z,1017.58
2016-11-16T03:08:55.849Z,1017.53
2016-11-16T03:09:56.501Z,1017.51
2016-11-16T03:10:57.126Z,1017.52
2016-11-16T03:11:57.750Z,1017.48
2016-11-16T03:12:58.356Z,1017.46
2016-11-16T03:13:58.984Z,1017.44
2016-11-16T03:14:59.593Z,1017.41
2016-11-16T03:16:00.209Z,1017.43
2016-11-16T03:17:00.832Z,1017.37
2016-11-16T03:18:01.459Z,1017.42
2016-11-16T03:19:02.098Z,1017.4
2016-11-16T03:20:02.708Z,1017.39
2016-11-16T03:21:03.317Z,1017.38
2016-11-16T03:22:03.921Z,1017.39
2016-11-16T03:23:04.541Z,1017.36
2016-11-16T03:24:05.184Z,1017.4
2016-11-16T03:25:05.804Z,1017.36
2016-11-16T03:26:06.424Z,1017.36
2016-11-16T03:27:07.047Z,1017.39
2016-11-16T03:28:07.671Z,1017.42
2016-11-16T03:29:08.283Z,1017.38
2016-11-16T03:30:08.894Z,1017.41
2016-11-16T03:31:09.506Z,1017.4
2016-11-16T03:32:10.120Z,1017.4
2016-11-16T03:33:10.729Z,1017.41
2016-11-16T03:34:11.332Z,1017.37
2016-11-16T03:35:11.955Z,1017.35
2016-11-16T03:36:12.579Z,1017.36
2016-11-16T03:37:13.200Z,1017.37
2016-11-16T03:38:13.815Z,1017.35
2016-11-16T03:39:14.433Z,1017.36
2016-11-16T03:40:15.074Z,1017.37
2016-11-16T03:41:15.678Z,1017.34
2016-11-16T03:42:16.299Z,1017.33
2016-11-16T03:43:16.922Z,1017.31
2016-11-16T03:44:17.546Z,1017.33
2016-11-16T03:45:18.159Z,1017.33
2016-11-16T03:46:18.786Z,1017.26
2016-11-16T03:47:19.407Z,1017.28
2016-11-16T03:48:20.028Z,1017.25
2016-11-16T03:49:20.731Z,1017.24
2016-11-16T03:50:21.366Z,1017.21
2016-11-16T03:51:21.988Z,1017.26
2016-11-16T03:52:22.609Z,1017.2
2016-11-16T03:53:23.256Z,1017.2
2016-11-16T03:54:23.859Z,1017.24
2016-11-16T03:55:24.480Z,1017.25
2016-11-16T03:56:25.116Z,1017.23
2016-11-16T03:57:25.719Z,1017.22
2016-11-16T03:58:26.399Z,1017.24
2016-11-16T03:59:27.040Z,1017.22
2016-11-16T04:00:27.676Z,1017.21
2016-11-16T04:01:28.306Z,1017.21
2016-11-16T04:02:28.927Z,1017.21
2016-11-16T04:03:29.541Z,1017.19
2016-11-16T04:04:30.169Z,1017.14
2016-11-16T04:05:30.789Z,1017.07
2016-11-16T04:06:31.413Z,1017.11
2016-11-16T04:07:32.029Z,1017.11
2016-11-16T04:08:32.699Z,1017.11
2016-11-16T04:09:33.310Z,1017.16
2016-11-16T04:10:33.928Z,1017.16
2016-11-16T04:11:34.552Z,1017.13
2016-11-16T04:12:35.176Z,1017.08
2016-11-16T04:13:35.797Z,1017.08
2016-11-16T04:14:36.406Z,1017.08
2016-11-16T04:15:37.013Z,1017.04
2016-11-16T04:16:37.633Z,1017.02
2016-11-16T04:17:38.247Z,1017.05
2016-11-16T04:18:38.855Z,1017.03
2016-11-16T04:19:39.493Z,1017.01
2016-11-16T04:20:40.100Z,1016.96
2016-11-16T04:21:40.716Z,1016.96
2016-11-16T04:22:41.321Z,1016.94
2016-11-16T04:23:41.963Z,1016.94
2016-11-16T04:24:42.567Z,1016.94
2016-11-16T04:25:43.207Z,1016.95
2016-11-16T04:26:43.828Z,1016.93
2016-11-16T04:27:44.449Z,1016.93
2016-11-16T04:28:45.082Z,1016.9
2016-11-16T04:29:45.706Z,1016.91
2016-11-16T04:30:46.352Z,1016.86
2016-11-16T04:31:46.974Z,1016.82
2016-11-16T04:32:47.600Z,1016.81
2016-11-16T04:33:48.216Z,1016.77
2016-11-16T04:34:48.838Z,1016.76
2016-11-16T04:35:49.488Z,1016.77
2016-11-16T04:36:50.100Z,1016.72
2016-11-16T04:37:50.731Z,1016.76
2016-11-16T04:38:51.341Z,1016.69
2016-11-16T04:39:52.036Z,1016.66
2016-11-16T04:40:52.623Z,1016.7
2016-11-16T04:41:53.246Z,1016.64
2016-11-16T04:42:53.904Z,1016.66
2016-11-16T04:43:54.532Z,1016.64
2016-11-16T04:44:55.147Z,1016.63
2016-11-16T04:45:55.767Z,1016.61
2016-11-16T04:46:56.389Z,1016.59
2016-11-16T04:47:56.992Z,1016.56
2016-11-16T04:48:57.605Z,1016.52
2016-11-16T04:49:58.236Z,1016.48
2016-11-16T04:50:58.842Z,1016.47
2016-11-16T04:51:59.463Z,1016.44
2016-11-16T04:53:00.149Z,1016.48
2016-11-16T04:54:00.804Z,1016.47
2016-11-16T04:55:01.417Z,1016.46
2016-11-16T04:56:02.048Z,1016.44
2016-11-16T04:57:02.675Z,1016.43
2016-11-16T04:58:03.277Z,1016.42
2016-11-16T04:59:03.888Z,1016.39
2016-11-16T05:00:04.509Z,1016.36
2016-11-16T05:01:05.133Z,1016.33
2016-11-16T05:02:05.744Z,1016.29
2016-11-16T05:03:06.350Z,1016.27
2016-11-16T05:04:06.972Z,1016.2
2016-11-16T05:05:07.620Z,1016.18
2016-11-16T05:06:08.241Z,1016.16
2016-11-16T05:07:08.855Z,1016.14
2016-11-16T05:08:09.459Z,1016.11
2016-11-16T05:09:10.077Z,1016.09
2016-11-16T05:10:10.711Z,1016.04
2016-11-16T05:11:11.341Z,1016.04
2016-11-16T05:12:11.959Z,1016
2016-11-16T05:13:12.574Z,1016.01
2016-11-16T05:14:13.186Z,1015.98
2016-11-16T05:15:13.803Z,1016.01
2016-11-16T05:16:14.424Z,1015.96
2016-11-16T05:17:15.044Z,1015.92
2016-11-16T05:18:15.670Z,1015.88
2016-11-16T05:19:16.281Z,1015.89
2016-11-16T05:20:16.907Z,1015.86
2016-11-16T05:21:17.530Z,1015.83
2016-11-16T05:22:18.154Z,1015.86
2016-11-16T05:23:18.799Z,1015.84
2016-11-16T05:24:19.458Z,1015.81
2016-11-16T05:25:20.070Z,1015.76
2016-11-16T05:26:20.713Z,1015.78
2016-11-16T05:27:21.359Z,1015.72
2016-11-16T05:28:21.979Z,1015.73
2016-11-16T05:29:22.597Z,1015.74
2016-11-16T05:30:23.391Z,1015.74
2016-11-16T05:31:24.021Z,1015.69
2016-11-16T05:32:24.669Z,1015.68
2016-11-16T05:33:25.287Z,1015.61
2016-11-16T05:34:25.913Z,1015.63
2016-11-16T05:35:26.531Z,1015.53
2016-11-16T05:36:27.143Z,1015.51
2016-11-16T05:37:27.768Z,1015.5
2016-11-16T05:38:28.390Z,1015.46
2016-11-16T05:39:29.022Z,1015.44
2016-11-16T05:40:29.624Z,1015.39
2016-11-16T05:41:30.248Z,1015.34
2016-11-16T05:42:30.877Z,1015.35
2016-11-16T05:43:31.522Z,1015.4
2016-11-16T05:44:32.179Z,1015.41
2016-11-16T05:45:32.787Z,1015.44
2016-11-16T05:46:33.394Z,1015.4
2016-11-16T05:47:34.022Z,1015.38
2016-11-16T05:48:34.638Z,1015.35
2016-11-16T05:49:35.266Z,1015.32
2016-11-16T05:50:35.945Z,1015.3
2016-11-16T05:51:36.565Z,1015.25
2016-11-16T05:52:37.303Z,1015.22
2016-11-16T05:53:37.920Z,1015.25
2016-11-16T05:54:38.544Z,1015.27
2016-11-16T05:55:39.168Z,1015.34
2016-11-16T05:56:39.778Z,1015.44
2016-11-16T05:57:40.400Z,1015.4
2016-11-16T05:58:41.027Z,1015.39
2016-11-16T05:59:41.650Z,1015.36
2016-11-16T06:00:42.261Z,1015.3
2016-11-16T06:01:43.621Z,1015.28
2016-11-16T06:02:44.228Z,1015.28
2016-11-16T06:03:44.920Z,1015.27
2016-11-16T06:04:45.546Z,1015.2
2016-11-16T06:05:46.209Z,1015.19
2016-11-16T06:06:46.814Z,1015.17
2016-11-16T06:07:47.437Z,1015.16
2016-11-16T06:08:48.057Z,1015.17
2016-11-16T06:09:48.670Z,1015.16
2016-11-16T06:10:49.278Z,1015.18
2016-11-16T06:11:49.899Z,1015.14
2016-11-16T06:12:50.571Z,1015.12
2016-11-16T06:13:51.209Z,1015.1
2016-11-16T06:14:51.832Z,1015.06
2016-11-16T06:15:52.444Z,1015.03
2016-11-16T06:16:53.062Z,1015
2016-11-16T06:17:53.689Z,1015.03
2016-11-16T06:18:54.324Z,1015.04
2016-11-16T06:19:55.003Z,1015.03
2016-11-16T06:20:55.551Z,1014.97
2016-11-16T06:21:56.228Z,1014.95
2016-11-16T06:22:56.829Z,1014.93
2016-11-16T06:23:57.464Z,1014.93
2016-11-16T06:24:58.094Z,1014.93
2016-11-16T06:25:58.728Z,1014.88
2016-11-16T06:26:59.359Z,1014.88
2016-11-16T06:27:59.999Z,1014.82
2016-11-16T06:29:00.627Z,1014.8
2016-11-16T06:30:01.245Z,1014.84
2016-11-16T06:31:01.858Z,1014.8
2016-11-16T06:32:02.490Z,1014.81
2016-11-16T06:33:03.106Z,1014.77
2016-11-16T06:34:03.728Z,1014.77
2016-11-16T06:35:04.361Z,1014.76
2016-11-16T06:36:04.999Z,1014.82
2016-11-16T06:37:05.749Z,1014.78
2016-11-16T06:38:06.371Z,1014.81
2016-11-16T06:39:07.044Z,1014.79
2016-11-16T06:40:07.647Z,1014.82
2016-11-16T06:41:08.284Z,1014.79
2016-11-16T06:42:08.916Z,1014.78
2016-11-16T06:43:09.552Z,1014.84
2016-11-16T06:44:10.176Z,1014.82
2016-11-16T06:45:10.814Z,1014.8
2016-11-16T06:46:11.437Z,1014.79
2016-11-16T06:47:12.088Z,1014.8
2016-11-16T06:48:12.761Z,1014.77
2016-11-16T06:49:13.383Z,1014.74
2016-11-16T06:50:14.029Z,1014.7
2016-11-16T06:51:14.665Z,1014.69
2016-11-16T06:52:15.310Z,1014.63
2016-11-16T06:53:15.937Z,1014.65
2016-11-16T06:54:16.546Z,1014.67
2016-11-16T06:55:17.155Z,1014.65
2016-11-16T06:56:17.766Z,1014.6
2016-11-16T06:57:18.393Z,1014.64
2016-11-16T06:58:19.010Z,1014.61
2016-11-16T06:59:19.631Z,1014.59
2016-11-16T07:00:20.257Z,1014.62
2016-11-16T07:01:20.995Z,1014.64
2016-11-16T07:02:21.609Z,1014.62
2016-11-16T07:03:22.214Z,1014.6
2016-11-16T07:04:22.835Z,1014.61
2016-11-16T07:05:23.441Z,1014.52
2016-11-16T07:06:24.057Z,1014.52
2016-11-16T07:07:24.702Z,1014.46
2016-11-16T07:08:25.315Z,1014.42
2016-11-16T07:09:25.942Z,1014.36
2016-11-16T07:10:26.578Z,1014.28
2016-11-16T07:11:27.197Z,1014.24
2016-11-16T07:12:27.843Z,1014.22
2016-11-16T07:13:28.462Z,1014.19
2016-11-16T07:14:29.085Z,1014.18
2016-11-16T07:15:29.693Z,1014.13
2016-11-16T07:16:30.314Z,1014.12
2016-11-16T07:17:30.922Z,1014.09
2016-11-16T07:18:31.534Z,1014.1
2016-11-16T07:19:32.149Z,1014.1
2016-11-16T07:20:32.771Z,1014.13
2016-11-16T07:21:33.399Z,1014.17
2016-11-16T07:22:34.017Z,1014.15
2016-11-16T07:23:34.621Z,1014.12
2016-11-16T07:24:35.231Z,1014.11
2016-11-16T07:25:35.857Z,1014.07
2016-11-16T07:26:36.468Z,1014.03
2016-11-16T07:27:37.071Z,1013.97
2016-11-16T07:28:37.680Z,1013.91
2016-11-16T07:29:38.315Z,1013.92
2016-11-16T07:30:39.257Z,1013.96
2016-11-16T07:31:39.861Z,1013.94
2016-11-16T07:32:40.491Z,1014.01
2016-11-16T07:33:41.099Z,1014.03
2016-11-16T07:34:41.704Z,1014.01
2016-11-16T07:35:42.335Z,1014.01
2016-11-16T07:36:42.957Z,1014.04
2016-11-16T07:37:43.573Z,1014.04
2016-11-16T07:38:44.181Z,1014.04
2016-11-16T07:39:44.826Z,1014.01
2016-11-16T07:40:45.572Z,1013.96
2016-11-16T07:41:46.243Z,1013.87
2016-11-16T07:42:46.901Z,1013.93
2016-11-16T07:43:47.513Z,1013.94
2016-11-16T07:44:48.311Z,1013.97
2016-11-16T07:45:48.962Z,1013.94
2016-11-16T07:46:49.585Z,1013.96
2016-11-16T07:47:50.199Z,1013.88
2016-11-16T07:48:50.830Z,1013.87
2016-11-16T07:49:51.449Z,1013.89
2016-11-16T07:50:52.062Z,1013.92
2016-11-16T07:51:52.685Z,1013.93
2016-11-16T07:52:53.316Z,1013.92
2016-11-16T07:53:53.950Z,1013.89
2016-11-16T07:54:54.643Z,1013.95
2016-11-16T07:55:55.240Z,1013.94
2016-11-16T07:56:55.865Z,1013.98
2016-11-16T07:57:56.505Z,1013.92
2016-11-16T07:58:57.257Z,1013.89
2016-11-16T07:59:57.910Z,1013.9
2016-11-16T08:00:58.511Z,1013.85
2016-11-16T08:01:59.144Z,1013.83
2016-11-16T08:02:59.760Z,1013.75
2016-11-16T08:04:00.421Z,1013.77
2016-11-16T08:05:01.033Z,1013.78
2016-11-16T08:06:01.654Z,1013.8
2016-11-16T08:07:02.413Z,1013.8
2016-11-16T08:08:03.126Z,1013.82
2016-11-16T08:09:03.805Z,1013.81
2016-11-16T08:10:04.489Z,1013.7
2016-11-16T08:11:05.124Z,1013.64
2016-11-16T08:12:05.735Z,1013.62
2016-11-16T08:13:06.353Z,1013.63
2016-11-16T08:14:06.972Z,1013.58
2016-11-16T08:15:07.592Z,1013.59
2016-11-16T08:16:08.218Z,1013.54
2016-11-16T08:17:08.857Z,1013.53
2016-11-16T08:18:09.456Z,1013.48
2016-11-16T08:19:10.078Z,1013.47
2016-11-16T08:20:10.696Z,1013.45
2016-11-16T08:21:11.320Z,1013.42
2016-11-16T08:22:11.995Z,1013.4
2016-11-16T08:23:12.615Z,1013.34
2016-11-16T08:24:13.281Z,1013.3
2016-11-16T08:25:13.924Z,1013.3
2016-11-16T08:26:14.589Z,1013.19
2016-11-16T08:27:15.191Z,1013.18
2016-11-16T08:28:15.843Z,1013.11
2016-11-16T08:29:16.460Z,1013.08
2016-11-16T08:30:17.088Z,1013.1
2016-11-16T08:31:17.730Z,1013.02
2016-11-16T08:32:18.353Z,1013.04
2016-11-16T08:33:18.970Z,1012.99
2016-11-16T08:34:19.591Z,1013.03
2016-11-16T08:35:20.210Z,1012.96
2016-11-16T08:36:20.819Z,1012.96
2016-11-16T08:37:21.446Z,1012.9
2016-11-16T08:38:22.073Z,1012.86
2016-11-16T08:39:22.696Z,1012.8
2016-11-16T08:40:23.313Z,1012.8
2016-11-16T08:41:23.931Z,1012.77
2016-11-16T08:42:24.538Z,1012.75
2016-11-16T08:43:25.152Z,1012.77
2016-11-16T08:44:25.837Z,1012.8
2016-11-16T08:45:26.507Z,1012.85
2016-11-16T08:46:27.127Z,1012.85
2016-11-16T08:47:27.753Z,1012.89
2016-11-16T08:48:28.398Z,1012.86
2016-11-16T08:49:29.017Z,1012.85
2016-11-16T08:50:29.753Z,1012.81
2016-11-16T08:51:30.375Z,1012.79
2016-11-16T08:52:31.033Z,1012.81
2016-11-16T08:53:31.751Z,1012.76
2016-11-16T08:54:32.368Z,1012.72
2016-11-16T08:55:32.985Z,1012.67
2016-11-16T08:56:33.640Z,1012.7
2016-11-16T08:57:34.248Z,1012.68
2016-11-16T08:58:34.888Z,1012.64
2016-11-16T08:59:35.538Z,1012.69
2016-11-16T09:00:36.320Z,1012.71
2016-11-16T09:01:36.940Z,1012.67
2016-11-16T09:02:37.566Z,1012.64
2016-11-16T09:03:38.182Z,1012.65
2016-11-16T09:04:38.812Z,1012.63
2016-11-16T09:05:39.470Z,1012.59
2016-11-16T09:06:40.087Z,1012.57
2016-11-16T09:07:40.710Z,1012.55
2016-11-16T09:08:41.334Z,1012.48
2016-11-16T09:09:41.988Z,1012.45
2016-11-16T09:10:42.611Z,1012.45
2016-11-16T09:11:43.237Z,1012.44
2016-11-16T09:12:43.855Z,1012.39
2016-11-16T09:13:44.475Z,1012.38
2016-11-16T09:14:45.084Z,1012.38
2016-11-16T09:15:45.714Z,1012.31
2016-11-16T09:16:46.351Z,1012.29
2016-11-16T09:17:47.165Z,1012.27
2016-11-16T09:18:47.836Z,1012.23
2016-11-16T09:19:48.461Z,1012.24
2016-11-16T09:20:49.103Z,1012.26
2016-11-16T09:21:49.733Z,1012.23
2016-11-16T09:22:50.354Z,1012.19
2016-11-16T09:23:50.993Z,1012.22
2016-11-16T09:24:51.615Z,1012.21
2016-11-16T09:25:52.234Z,1012.18
2016-11-16T09:26:52.863Z,1012.18
2016-11-16T09:27:53.466Z,1012.19
2016-11-16T09:28:54.087Z,1012.24
2016-11-16T09:29:54.708Z,1012.22
2016-11-16T09:30:55.342Z,1012.23
2016-11-16T09:31:55.959Z,1012.18
2016-11-16T09:32:56.564Z,1012.23
2016-11-16T09:33:57.190Z,1012.21
2016-11-16T09:34:57.818Z,1012.23
2016-11-16T09:35:58.433Z,1012.22
2016-11-16T09:36:59.049Z,1012.2
2016-11-16T09:37:59.691Z,1012.2
2016-11-16T09:39:00.361Z,1012.12
2016-11-16T09:40:01.030Z,1012.04
2016-11-16T09:41:01.644Z,1012.04
2016-11-16T09:42:02.308Z,1012.01
2016-11-16T09:43:03.111Z,1012.04
2016-11-16T09:44:03.926Z,1011.99
2016-11-16T09:45:04.720Z,1011.91
2016-11-16T09:46:05.361Z,1011.86
2016-11-16T09:47:05.976Z,1011.81
2016-11-16T09:48:06.646Z,1011.82
2016-11-16T09:49:07.372Z,1011.82
2016-11-16T09:50:08.017Z,1011.9
2016-11-16T09:51:08.700Z,1011.86
2016-11-16T09:52:09.327Z,1011.9
2016-11-16T09:53:09.939Z,1011.89
2016-11-16T09:54:10.602Z,1011.87
2016-11-16T09:55:11.224Z,1011.84
2016-11-16T09:56:11.848Z,1011.81
2016-11-16T09:57:12.469Z,1011.68
2016-11-16T09:58:13.096Z,1011.61
2016-11-16T09:59:13.710Z,1011.58
2016-11-16T10:00:14.352Z,1011.57
2016-11-16T10:01:15.010Z,1011.62
2016-11-16T10:02:15.639Z,1011.57
2016-11-16T10:03:16.300Z,1011.5
2016-11-16T10:04:17.005Z,1011.46
2016-11-16T10:05:17.691Z,1011.48
2016-11-16T10:06:18.349Z,1011.43
2016-11-16T10:07:18.965Z,1011.39
2016-11-16T10:08:19.638Z,1011.39
2016-11-16T10:09:20.250Z,1011.34
2016-11-16T10:10:20.891Z,1011.31
2016-11-16T10:11:21.596Z,1011.33
2016-11-16T10:12:22.230Z,1011.34
2016-11-16T10:13:22.877Z,1011.33
2016-11-16T10:14:23.518Z,1011.28
2016-11-16T10:15:24.138Z,1011.25
2016-11-16T10:16:24.776Z,1011.24
2016-11-16T10:17:25.457Z,1011.22
2016-11-16T10:18:26.091Z,1011.25
2016-11-16T10:19:26.727Z,1011.27
2016-11-16T10:20:27.412Z,1011.21
2016-11-16T10:21:28.021Z,1011.16
2016-11-16T10:22:28.641Z,1011.09
2016-11-16T10:23:29.254Z,1011.04
2016-11-16T10:24:29.878Z,1011.02
2016-11-16T10:25:30.514Z,1010.97
2016-11-16T10:26:31.157Z,1010.99
2016-11-16T10:27:31.799Z,1010.94
2016-11-16T10:28:32.425Z,1010.88
2016-11-16T10:29:33.096Z,1010.83
2016-11-16T10:30:33.723Z,1010.78
2016-11-16T10:31:34.347Z,1010.77
2016-11-16T10:32:34.963Z,1010.67
2016-11-16T10:33:35.603Z,1010.64
2016-11-16T10:34:36.296Z,1010.55
2016-11-16T10:35:36.914Z,1010.5
2016-11-16T10:36:37.595Z,1010.45
2016-11-16T10:37:38.318Z,1010.41
2016-11-16T10:38:38.943Z,1010.35
2016-11-16T10:39:39.604Z,1010.31
2016-11-16T10:40:40.278Z,1010.25
2016-11-16T10:41:40.906Z,1010.2
2016-11-16T10:42:41.529Z,1010.19
2016-11-16T10:43:42.166Z,1010.24
2016-11-16T10:44:42.846Z,1010.14
2016-11-16T10:45:43.469Z,1010.14
2016-11-16T10:46:44.088Z,1010.21
2016-11-16T10:47:44.751Z,1010.23
2016-11-16T10:48:45.377Z,1010.27
2016-11-16T10:49:46.020Z,1010.29
2016-11-16T10:50:46.660Z,1010.28
2016-11-16T10:51:47.309Z,1010.34
2016-11-16T10:52:47.925Z,1010.28
2016-11-16T10:53:48.544Z,1010.26
2016-11-16T10:54:49.168Z,1010.28
2016-11-16T10:55:49.785Z,1010.22
2016-11-16T10:56:50.398Z,1010.2
2016-11-16T10:57:51.025Z,1010.12
2016-11-16T10:58:51.640Z,1010.08
2016-11-16T10:59:52.265Z,1010.05
2016-11-16T11:00:52.890Z,1010.06
2016-11-16T11:01:53.513Z,1010.01
2016-11-16T11:02:54.134Z,1010.04
2016-11-16T11:03:54.750Z,1009.98
2016-11-16T11:04:55.373Z,1010
2016-11-16T11:05:56.013Z,1009.97
2016-11-16T11:06:56.633Z,1009.99
2016-11-16T11:07:57.249Z,1009.91
2016-11-16T11:08:57.900Z,1009.92
2016-11-16T11:09:58.519Z,1009.86
2016-11-16T11:10:59.141Z,1009.85
2016-11-16T11:11:59.775Z,1009.8
2016-11-16T11:13:00.401Z,1009.8
2016-11-16T11:14:01.022Z,1009.79
2016-11-16T11:15:01.646Z,1009.75
2016-11-16T11:16:02.266Z,1009.74
2016-11-16T11:17:02.891Z,1009.72
2016-11-16T11:18:03.501Z,1009.76
2016-11-16T11:19:04.117Z,1009.71
2016-11-16T11:20:04.728Z,1009.66
2016-11-16T11:21:05.492Z,1009.63
2016-11-16T11:22:06.133Z,1009.58
2016-11-16T11:23:06.777Z,1009.54
2016-11-16T11:24:07.420Z,1009.56
2016-11-16T11:25:08.043Z,1009.54
2016-11-16T11:26:08.670Z,1009.52
2016-11-16T11:27:09.300Z,1009.52
2016-11-16T11:28:09.924Z,1009.52
2016-11-16T11:29:10.605Z,1009.49
2016-11-16T11:30:11.232Z,1009.51
2016-11-16T11:31:11.882Z,1009.53
2016-11-16T11:32:12.508Z,1009.51
2016-11-16T11:33:13.149Z,1009.53
2016-11-16T11:34:13.773Z,1009.51
2016-11-16T11:35:14.366Z,1009.46
2016-11-16T11:36:15.150Z,1009.41
2016-11-16T11:37:15.770Z,1009.41
2016-11-16T11:38:16.399Z,1009.45
2016-11-16T11:39:17.053Z,1009.41
2016-11-16T11:40:17.703Z,1009.47
2016-11-16T11:41:18.325Z,1009.37
2016-11-16T11:42:19.005Z,1009.41
2016-11-16T11:43:19.727Z,1009.36
2016-11-16T11:44:20.368Z,1009.4
2016-11-16T11:45:21.013Z,1009.32
2016-11-16T11:46:21.674Z,1009.29
2016-11-16T11:47:22.302Z,1009.26
2016-11-16T11:48:22.920Z,1009.2
2016-11-16T11:49:23.538Z,1009.2
2016-11-16T11:50:24.283Z,1009.17
2016-11-16T11:51:24.939Z,1009.17
2016-11-16T11:52:25.590Z,1009.14
2016-11-16T11:53:26.209Z,1009.17
2016-11-16T11:54:26.828Z,1009.11
2016-11-16T11:55:27.463Z,1009.14
2016-11-16T11:56:28.108Z,1009.11
2016-11-16T11:57:28.785Z,1009.14
2016-11-16T11:58:29.409Z,1009.11
2016-11-16T11:59:30.062Z,1009.13
2016-11-16T12:00:30.674Z,1009.12
2016-11-16T12:01:31.314Z,1009.18
2016-11-16T12:02:31.938Z,1009.16
2016-11-16T12:03:32.561Z,1009.16
2016-11-16T12:04:33.180Z,1009.1
2016-11-16T12:05:33.800Z,1009.13
2016-11-16T12:06:34.425Z,1009.09
2016-11-16T12:07:35.058Z,1009.1
2016-11-16T12:08:35.704Z,1009.11
2016-11-16T12:09:36.334Z,1009.13
2016-11-16T12:10:36.953Z,1009.1
2016-11-16T12:11:37.585Z,1009.1
2016-11-16T12:12:38.246Z,1009.06
2016-11-16T12:13:38.867Z,1009.04
2016-11-16T12:14:39.497Z,1008.95
2016-11-16T12:15:40.119Z,1008.96
2016-11-16T12:16:40.749Z,1008.95